Time;durP1;ratioP1;P1;durP2;ratioP2;P2;SDS_P1;SDS_P2;PMS_P1;PMS_P2;Temp;Humidity;BMP_temperature;BMP_pressure;BME280_temperature;BME280_humidity;BME280_pressure;Samples;Min_cycle;Max_cycle;Signal;HPM_P1;HPM_P2
2022/06/15 00:04:36;;;;;;;1.23;0.70;;;17.70;51.50;19.90;94020.00;;;;10439647;28;45179;-61
2022/06/15 00:09:56;;;;;;;2.15;0.63;;;17.80;51.50;19.80;94015.00;;;;10439818;28;45189;-59
2022/06/15 00:15:19;;;;;;;1.40;0.55;;;17.80;51.90;19.80;94007.00;;;;10439526;28;45737;-61
2022/06/15 00:20:39;;;;;;;0.80;0.52;;;17.80;51.50;19.80;94014.00;;;;10439228;28;45116;-60
2022/06/15 00:26:00;;;;;;;1.10;0.60;;;17.80;51.40;19.80;94010.00;;;;10438818;28;45254;-59
2022/06/15 00:31:22;;;;;;;1.10;0.57;;;17.70;51.40;19.90;94012.00;;;;10438462;28;45295;-59
2022/06/15 00:36:43;;;;;;;0.90;0.68;;;17.80;51.40;19.80;94005.00;;;;10438965;28;45657;-59
2022/06/15 00:42:04;;;;;;;0.80;0.70;;;17.70;51.30;19.80;93998.00;;;;10438495;28;45236;-61
2022/06/15 00:47:31;;;;;;;0.52;0.52;;;17.70;51.30;19.80;94000.00;;;;10438554;28;45798;-61
2022/06/15 00:52:56;;;;;;;0.90;0.50;;;17.70;51.30;19.80;94001.00;;;;10437979;28;45187;-60
2022/06/15 00:58:16;;;;;;;0.60;0.50;;;17.70;51.40;19.80;94001.00;;;;10436351;28;45261;-59
2022/06/15 01:03:38;;;;;;;0.88;0.57;;;17.70;51.30;19.80;93996.00;;;;10432369;28;45793;-59
2022/06/15 01:09:05;;;;;;;0.98;0.68;;;17.70;51.30;19.80;93993.00;;;;10436453;28;45210;-60
2022/06/15 01:14:58;;;;;;;1.13;0.60;;;17.70;51.40;19.80;93995.00;;;;10437425;28;45896;-59
2022/06/15 01:20:48;;;;;;;0.60;0.50;;;17.70;51.30;19.80;93986.00;;;;10437314;28;45252;-60
2022/06/15 01:26:52;;;;;;;0.95;0.70;;;17.70;51.30;19.80;94002.00;;;;10437009;28;45156;-60
2022/06/15 01:32:19;;;;;;;1.15;0.70;;;17.70;51.40;19.80;93988.00;;;;10436114;28;45165;-60
2022/06/15 01:37:49;;;;;;;1.08;0.70;;;17.70;51.40;19.80;93982.00;;;;10436925;28;45327;-60
2022/06/15 01:43:16;;;;;;;0.77;0.57;;;17.70;51.40;19.80;93981.00;;;;10436252;28;45045;-61
2022/06/15 01:48:40;;;;;;;0.75;0.65;;;17.70;51.40;19.80;93984.00;;;;10436025;28;45188;-60
2022/06/15 01:54:06;;;;;;;0.82;0.68;;;17.70;51.40;19.80;93989.00;;;;10436714;28;45219;-60
2022/06/15 01:59:33;;;;;;;1.15;0.70;;;17.70;51.40;19.80;93996.00;;;;10436780;28;45164;-60
2022/06/15 02:05:00;;;;;;;0.88;0.60;;;17.70;51.40;19.80;93992.00;;;;10436195;28;46033;-60
2022/06/15 02:10:27;;;;;;;1.10;0.57;;;17.70;51.40;19.80;93994.00;;;;10436141;28;45714;-60
2022/06/15 02:15:56;;;;;;;1.20;0.70;;;17.70;51.50;19.80;93982.00;;;;10435376;28;45248;-62
2022/06/15 02:21:20;;;;;;;0.82;0.63;;;17.60;51.40;19.80;93997.00;;;;10436162;28;45212;-60
2022/06/15 02:26:41;;;;;;;0.50;0.47;;;17.60;51.40;19.80;93991.00;;;;10435355;28;45902;-61
2022/06/15 02:32:02;;;;;;;1.27;0.60;;;17.60;51.40;19.80;93991.00;;;;10435580;28;45194;-60
2022/06/15 02:37:24;;;;;;;0.70;0.70;;;17.60;51.40;19.80;93981.00;;;;10435166;28;45175;-59
2022/06/15 02:42:45;;;;;;;1.13;0.80;;;17.60;51.40;19.70;93985.00;;;;10434835;28;45934;-60
2022/06/15 02:48:09;;;;;;;1.02;0.70;;;17.60;51.40;19.70;93982.00;;;;10441406;28;45669;-59
2022/06/15 02:53:34;;;;;;;1.10;0.73;;;17.60;51.40;19.70;93979.00;;;;10442878;28;45534;-60
2022/06/15 02:58:57;;;;;;;1.00;0.60;;;17.60;51.40;19.70;93969.00;;;;10442116;28;45295;-61
2022/06/15 03:04:18;;;;;;;0.98;0.75;;;17.60;51.50;19.70;93972.00;;;;10441585;28;45244;-60
2022/06/15 03:09:40;;;;;;;1.45;0.77;;;17.60;51.50;19.70;93969.00;;;;10441943;28;45500;-61
2022/06/15 03:15:00;;;;;;;0.90;0.60;;;17.60;51.50;19.70;93958.00;;;;10442194;28;45407;-61
2022/06/15 03:20:21;;;;;;;0.65;0.60;;;17.60;51.50;19.70;93967.00;;;;10441541;28;45207;-60
2022/06/15 03:25:43;;;;;;;1.20;0.65;;;17.60;51.50;19.70;93975.00;;;;10440880;28;45178;-60
2022/06/15 03:31:04;;;;;;;1.58;0.80;;;17.60;51.60;19.70;93978.00;;;;10441258;28;45213;-59
2022/06/15 03:36:24;;;;;;;1.85;0.80;;;17.60;51.60;19.70;93968.00;;;;10441296;28;45160;-60
2022/06/15 03:46:50;;;;;;;0.75;0.65;;;17.60;51.60;19.70;93974.00;;;;10480252;28;45163;-64
2022/06/15 03:52:11;;;;;;;0.85;0.70;;;17.60;51.70;19.70;93970.00;;;;10481895;28;45158;-64
2022/06/15 03:57:33;;;;;;;1.50;0.80;;;17.60;51.70;19.70;93978.00;;;;10481343;28;45743;-64
2022/06/15 04:02:56;;;;;;;0.82;0.70;;;17.60;51.60;19.70;93963.00;;;;10482360;28;45146;-65
2022/06/15 04:13:58;;;;;;;0.82;0.70;;;17.60;51.70;19.70;93967.00;;;;10481289;28;45881;-64
2022/06/15 04:19:20;;;;;;;0.90;0.80;;;17.60;51.60;19.70;93965.00;;;;10481495;28;45778;-64
2022/06/15 04:24:41;;;;;;;1.33;0.80;;;17.60;51.70;19.70;93967.00;;;;10481184;28;45247;-64
2022/06/15 04:30:02;;;;;;;0.82;0.70;;;17.60;51.70;19.70;93961.00;;;;10481163;28;45170;-64
2022/06/15 04:35:24;;;;;;;1.20;1.00;;;17.60;51.80;19.70;93968.00;;;;10480374;28;45252;-64
2022/06/15 04:40:44;;;;;;;1.00;0.70;;;17.60;51.80;19.70;93964.00;;;;10480629;28;45101;-64
2022/06/15 04:46:05;;;;;;;1.10;0.80;;;17.60;51.90;19.70;93965.00;;;;10479842;28;45175;-64
2022/06/15 04:51:29;;;;;;;1.63;0.70;;;17.60;51.90;19.70;93978.00;;;;10480836;28;45230;-64
2022/06/15 04:56:50;;;;;;;1.08;0.80;;;17.60;51.90;19.70;93979.00;;;;10480139;28;45189;-64
2022/06/15 05:02:11;;;;;;;0.88;0.70;;;17.60;52.00;19.70;93965.00;;;;10480215;28;45134;-64
2022/06/15 05:07:33;;;;;;;0.80;0.80;;;17.60;52.00;19.70;93968.00;;;;10478457;28;45879;-65
2022/06/15 05:12:55;;;;;;;1.58;0.90;;;17.60;52.10;19.70;93977.00;;;;10479386;28;45103;-64
2022/06/15 05:18:15;;;;;;;2.78;0.85;;;17.60;52.00;19.70;93969.00;;;;10479454;28;45211;-64
2022/06/15 05:23:37;;;;;;;1.80;0.95;;;17.60;52.00;19.70;93989.00;;;;10479258;28;45152;-64
2022/06/15 05:28:57;;;;;;;1.23;0.80;;;17.60;52.20;19.70;93990.00;;;;10478629;28;45110;-65
2022/06/15 05:34:18;;;;;;;0.98;0.70;;;17.60;52.30;19.70;93983.00;;;;10478637;28;45739;-64
2022/06/15 05:39:40;;;;;;;1.92;0.90;;;17.60;52.30;19.70;94002.00;;;;10478522;28;45242;-64
2022/06/15 05:45:01;;;;;;;1.30;0.80;;;17.60;52.30;19.70;93994.00;;;;10477860;28;45774;-64
2022/06/15 05:50:22;;;;;;;1.88;0.90;;;17.60;52.40;19.70;93995.00;;;;10478295;28;45239;-64
2022/06/15 05:55:44;;;;;;;1.40;0.82;;;17.60;52.30;19.70;94004.00;;;;10477740;28;45688;-64
2022/06/15 06:01:10;;;;;;;2.42;0.75;;;17.60;52.50;19.70;93998.00;;;;10478196;28;45110;-64
2022/06/15 06:06:32;;;;;;;2.80;1.30;;;17.60;52.50;19.70;93996.00;;;;10477639;28;45875;-64
2022/06/15 06:11:54;;;;;;;3.92;1.27;;;17.60;52.50;19.70;94007.00;;;;10477410;28;45739;-64
2022/06/15 06:17:14;;;;;;;4.80;1.20;;;17.60;52.50;19.70;94006.00;;;;10477399;28;45304;-64
2022/06/15 06:22:35;;;;;;;2.33;1.20;;;17.60;52.40;19.70;94004.00;;;;10476813;28;45101;-64
2022/06/15 06:27:57;;;;;;;5.00;1.58;;;17.60;52.30;19.80;94017.00;;;;10477174;28;45676;-64
2022/06/15 06:33:18;;;;;;;2.92;1.13;;;17.60;53.00;19.70;94019.00;;;;10476830;28;45196;-65
2022/06/15 06:38:38;;;;;;;1.67;1.00;;;17.60;52.30;19.70;94006.00;;;;10476715;28;45162;-65
2022/06/15 06:44:03;;;;;;;3.25;1.02;;;17.60;52.40;19.70;94018.00;;;;10476623;28;45237;-64
2022/06/15 06:49:25;;;;;;;3.33;1.20;;;17.60;52.20;19.80;94018.00;;;;10475745;28;45187;-64
2022/06/15 06:54:45;;;;;;;4.00;1.30;;;17.70;52.30;19.70;94019.00;;;;10476207;28;45827;-65
2022/06/15 07:00:11;;;;;;;2.47;1.33;;;17.60;52.20;19.70;94023.00;;;;10476230;28;45781;-65
2022/06/15 07:05:34;;;;;;;5.10;1.23;;;17.60;52.30;19.70;94012.00;;;;10475894;28;45268;-65
2022/06/15 07:10:55;;;;;;;2.35;1.30;;;17.70;52.40;19.70;94020.00;;;;10476150;28;45787;-65
2022/06/15 07:16:19;;;;;;;4.00;1.20;;;17.60;52.30;19.70;94023.00;;;;10475728;28;45105;-65
2022/06/15 07:21:41;;;;;;;2.83;1.40;;;17.60;52.30;19.80;94027.00;;;;10476083;28;45206;-65
2022/06/15 07:27:01;;;;;;;3.67;1.30;;;17.60;52.10;19.80;94019.00;;;;10457295;28;45217;-64
2022/06/15 07:32:23;;;;;;;2.95;1.02;;;17.70;52.30;19.80;94038.00;;;;10439005;28;45695;-64
2022/06/15 07:37:45;;;;;;;2.67;1.20;;;17.70;52.20;19.80;94038.00;;;;10463374;28;45199;-64
2022/06/15 07:43:05;;;;;;;3.17;1.40;;;17.60;52.20;19.70;94027.00;;;;10477423;28;45283;-65
2022/06/15 07:54:09;;;;;;;2.92;1.08;;;17.60;52.30;19.70;94049.00;;;;10482802;28;45221;-64
2022/06/15 07:59:30;;;;;;;1.88;1.08;;;17.60;52.30;19.80;94032.00;;;;10481657;28;45661;-64
2022/06/15 08:04:52;;;;;;;1.88;1.00;;;17.60;52.20;19.70;94035.00;;;;10481371;28;45166;-64
2022/06/15 08:10:15;;;;;;;2.47;1.20;;;17.60;52.20;19.80;94051.00;;;;10480444;28;45278;-65
2022/06/15 08:15:36;;;;;;;2.08;1.10;;;17.60;52.20;19.70;94041.00;;;;10471657;28;45280;-64
2022/06/15 08:21:01;;;;;;;3.40;1.10;;;17.70;52.30;19.70;94044.00;;;;10450927;28;45190;-64
2022/06/15 08:26:27;;;;;;;4.03;1.50;;;17.60;52.20;19.70;94046.00;;;;10451813;28;45708;-64
2022/06/15 08:31:48;;;;;;;2.83;1.08;;;17.60;52.20;19.70;94051.00;;;;10479347;28;45788;-64
2022/06/15 08:37:14;;;;;;;1.88;0.95;;;17.60;52.20;19.70;94035.00;;;;10480824;28;45111;-65
2022/06/15 08:42:47;;;;;;;2.25;1.20;;;17.60;52.30;19.70;94053.00;;;;10480290;28;45696;-65
2022/06/15 08:48:38;;;;;;;1.77;0.98;;;17.60;52.30;19.80;94056.00;;;;10479818;28;45221;-65
2022/06/15 08:54:06;;;;;;;2.13;1.30;;;17.60;52.20;19.70;94048.00;;;;10480252;28;45842;-65
2022/06/15 08:59:30;;;;;;;;;;;17.60;52.20;19.80;94053.00;;;;10480049;28;45814;-65
2022/06/15 09:04:59;;;;;;;1.40;0.90;;;17.70;52.20;19.70;94043.00;;;;10479831;28;45181;-65
2022/06/15 09:10:41;;;;;;;2.25;0.90;;;17.70;52.30;19.80;94053.00;;;;10479641;28;45255;-65
2022/06/15 09:16:14;;;;;;;2.97;1.05;;;17.60;52.20;19.80;94056.00;;;;10479170;28;45242;-64
2022/06/15 09:21:41;;;;;;;2.20;1.15;;;17.70;52.20;19.80;94039.00;;;;10479702;28;45147;-65
2022/06/15 09:27:11;;;;;;;2.75;1.25;;;17.60;52.20;19.80;94040.00;;;;10479261;28;45671;-65
2022/06/15 09:32:37;;;;;;;1.40;0.90;;;17.70;52.30;19.80;94040.00;;;;10478834;28;45778;-65
2022/06/15 09:38:00;;;;;;;1.83;1.00;;;17.70;52.30;19.80;94036.00;;;;10478661;28;45200;-65
2022/06/15 09:43:36;;;;;;;1.92;1.10;;;17.70;52.30;19.80;94033.00;;;;10478890;28;45242;-64
2022/06/15 09:49:08;;;;;;;2.22;1.08;;;17.70;52.30;19.80;94035.00;;;;10478492;28;45111;-64
2022/06/15 09:54:46;;;;;;;2.55;1.00;;;17.70;52.20;19.80;94040.00;;;;10478160;28;45862;-64
2022/06/15 10:00:14;;;;;;;;;;;17.70;52.20;19.80;94050.00;;;;10478501;28;45113;-65
2022/06/15 10:05:39;;;;;;;2.17;1.00;;;17.70;52.30;19.80;94044.00;;;;10473635;28;45678;-65
2022/06/15 10:11:05;;;;;;;2.17;1.00;;;17.80;52.60;19.90;94033.00;;;;10476877;28;45213;-65
2022/06/15 10:16:33;;;;;;;2.10;1.10;;;17.80;52.80;19.90;94032.00;;;;10477217;28;45158;-69
2022/06/15 10:21:57;;;;;;;4.43;1.40;;;17.80;53.10;19.90;94038.00;;;;10470296;28;45187;-68
2022/06/15 10:27:38;;;;;;;2.90;1.13;;;17.80;53.00;19.90;94042.00;;;;10458715;28;45136;-68
2022/06/15 10:33:04;;;;;;;1.65;0.93;;;17.80;53.10;19.90;94040.00;;;;10437106;28;45173;-68
2022/06/15 10:38:26;;;;;;;2.38;1.00;;;17.80;52.90;19.90;94040.00;;;;10436021;28;45161;-68
2022/06/15 10:43:47;;;;;;;2.30;1.20;;;17.80;53.10;19.90;94030.00;;;;10435531;28;45110;-68
2022/06/15 10:49:09;;;;;;;1.83;1.00;;;17.80;53.00;19.90;94036.00;;;;10435105;28;45755;-68
2022/06/15 11:02:06;;;;;;;1.80;1.10;;;17.80;53.10;19.90;94016.00;;;;10435550;28;45187;-68
2022/06/15 11:06:03;;;;;;;2.40;1.20;;;17.80;53.00;19.90;94017.00;;;;10436162;28;45176;-68
2022/06/15 11:11:27;;;;;;;2.55;1.20;;;17.80;53.00;19.90;94019.00;;;;10462971;28;45192;-69
2022/06/15 11:22:28;;;;;;;2.55;1.20;;;17.80;53.00;19.90;94018.00;;;;10494421;28;45171;-69
2022/06/15 11:27:55;;;;;;;2.63;1.10;;;17.80;53.10;19.90;94014.00;;;;10483102;28;45205;-68
2022/06/15 11:33:23;;;;;;;1.38;0.80;;;17.80;53.50;19.90;94025.00;;;;10483527;28;45159;-68
2022/06/15 11:38:52;;;;;;;2.70;1.30;;;17.80;53.30;19.90;94016.00;;;;10482932;28;45238;-68
2022/06/15 11:44:17;;;;;;;2.72;1.08;;;17.80;53.00;19.90;94024.00;;;;10482574;28;45182;-68
2022/06/15 11:49:48;;;;;;;2.47;1.10;;;17.90;53.20;19.90;94012.00;;;;10482391;28;45117;-69
2022/06/15 11:55:26;;;;;;;1.65;1.17;;;17.80;53.10;20.00;94003.00;;;;10482622;28;45113;-68
2022/06/15 12:01:03;;;;;;;1.67;0.80;;;17.90;53.30;19.90;94006.00;;;;10482474;28;45163;-68
2022/06/15 12:06:28;;;;;;;2.07;1.20;;;17.90;53.00;20.00;94002.00;;;;10481363;28;45726;-68
2022/06/15 12:17:48;;;;;;;3.80;1.17;;;17.90;52.80;20.00;94009.00;;;;10481641;28;45146;-68
2022/06/15 12:23:26;;;;;;;3.00;1.10;;;17.90;52.90;20.00;94014.00;;;;10481649;28;45156;-68
2022/06/15 12:28:57;;;;;;;2.25;1.15;;;17.80;52.80;20.00;94014.00;;;;10482172;28;45420;-69
2022/06/15 12:34:31;;;;;;;1.30;0.85;;;17.90;52.70;20.00;93993.00;;;;10481239;28;45333;-69
2022/06/15 12:40:10;;;;;;;1.83;0.82;;;17.90;52.70;20.10;93996.00;;;;10477802;28;45576;-67
2022/06/15 12:45:35;;;;;;;1.52;0.85;;;18.00;53.00;20.10;94009.00;;;;10479468;28;45195;-69
2022/06/15 12:51:04;;;;;;;2.35;0.82;;;18.10;52.70;20.10;93996.00;;;;10480527;28;45712;-69
2022/06/15 12:56:36;;;;;;;3.17;1.00;;;18.10;52.80;20.20;94000.00;;;;10479336;28;45144;-69
2022/06/15 13:02:09;;;;;;;1.40;0.90;;;18.10;52.90;20.20;93990.00;;;;10478944;28;45146;-65
2022/06/15 13:07:33;;;;;;;1.85;1.00;;;18.10;53.40;20.20;94002.00;;;;10477070;28;45315;-68
2022/06/15 13:13:00;;;;;;;2.95;0.88;;;18.10;53.10;20.20;93997.00;;;;10479719;28;45165;-68
2022/06/15 13:18:43;;;;;;;1.40;0.90;;;18.20;53.10;20.20;93999.00;;;;10479161;28;45280;-68
2022/06/15 13:24:07;;;;;;;1.85;1.08;;;18.20;53.10;20.30;93996.00;;;;10479986;28;45170;-66
2022/06/15 13:29:32;;;;;;;2.05;1.13;;;18.20;53.40;20.30;93997.00;;;;10476190;28;45560;-67
2022/06/15 13:34:54;;;;;;;1.08;0.70;;;18.20;53.60;20.30;93997.00;;;;10479087;28;45180;-67
2022/06/15 13:40:16;;;;;;;2.25;0.90;;;18.30;53.40;20.30;94001.00;;;;10479727;28;45774;-67
2022/06/15 13:45:41;;;;;;;1.73;0.90;;;18.30;53.30;20.30;93998.00;;;;10479906;28;45362;-67
2022/06/15 13:51:14;;;;;;;1.30;1.00;;;18.20;53.10;20.30;94002.00;;;;10479829;28;45204;-67
2022/06/15 13:56:47;;;;;;;2.05;1.00;;;18.30;53.30;20.30;93998.00;;;;10479406;28;45089;-67
2022/06/15 14:02:49;;;;;;;1.75;0.93;;;18.30;53.30;20.30;93987.00;;;;10479540;28;45110;-67
2022/06/15 14:08:34;;;;;;;1.50;1.00;;;18.30;53.00;20.30;93981.00;;;;10479217;28;45426;-67
2022/06/15 14:14:18;;;;;;;3.10;0.80;;;18.20;52.90;20.40;93984.00;;;;10479096;28;45796;-67
2022/06/15 14:19:44;;;;;;;1.30;0.80;;;18.30;53.10;20.40;93978.00;;;;10478997;28;45112;-67
2022/06/15 14:25:09;;;;;;;1.83;0.70;;;18.30;52.90;20.40;93976.00;;;;10478161;28;45248;-67
2022/06/15 14:30:34;;;;;;;1.10;0.77;;;18.30;52.90;20.40;93961.00;;;;10478140;28;45161;-67
2022/06/15 14:36:05;;;;;;;1.23;0.73;;;18.30;53.30;20.40;93980.00;;;;10478449;28;45390;-66
2022/06/15 14:41:30;;;;;;;2.15;0.90;;;18.30;53.10;20.40;93962.00;;;;10482997;28;45331;-66
2022/06/15 14:46:58;;;;;;;1.45;0.98;;;18.30;53.20;20.40;93965.00;;;;10485548;28;45128;-67
2022/06/15 14:52:28;;;;;;;1.33;0.90;;;18.30;53.20;20.40;93957.00;;;;10485743;28;45164;-67
2022/06/15 14:57:51;;;;;;;1.67;0.80;;;18.40;53.00;20.40;93952.00;;;;10485435;28;45172;-66
2022/06/15 15:03:26;;;;;;;2.13;0.90;;;18.40;52.90;20.50;93971.00;;;;10485547;28;45246;-67
2022/06/15 15:08:51;;;;;;;1.98;0.80;;;18.40;52.80;20.50;93975.00;;;;10485070;28;45191;-67
2022/06/15 15:14:22;;;;;;;1.35;0.80;;;18.40;52.70;20.50;93966.00;;;;10485049;28;45742;-67
2022/06/15 15:19:45;;;;;;;1.45;0.90;;;18.40;52.70;20.50;93953.00;;;;10484532;28;45921;-67
2022/06/15 15:25:09;;;;;;;2.08;0.90;;;18.40;52.70;20.50;93960.00;;;;10484395;28;45879;-67
2022/06/15 15:36:14;;;;;;;1.25;0.88;;;18.40;52.50;20.50;93963.00;;;;10484086;28;45198;-67
2022/06/15 15:41:35;;;;;;;1.45;0.95;;;18.50;52.50;20.60;93959.00;;;;10484262;28;45867;-67
2022/06/15 15:46:57;;;;;;;1.77;1.00;;;18.50;52.60;20.60;93937.00;;;;10484272;28;45162;-66
2022/06/15 15:52:21;;;;;;;1.50;0.95;;;18.50;52.50;20.60;93923.00;;;;10483145;28;45104;-66
2022/06/15 15:57:43;;;;;;;0.77;0.70;;;18.60;52.50;20.60;93928.00;;;;10483498;28;45415;-65
2022/06/15 16:03:12;;;;;;;1.67;1.00;;;18.50;52.50;20.60;93928.00;;;;10483375;28;45183;-66
2022/06/15 16:08:33;;;;;;;1.83;0.90;;;18.50;52.40;20.60;93926.00;;;;10483190;28;45171;-66
2022/06/15 16:13:54;;;;;;;1.30;0.80;;;18.60;52.30;20.60;93943.00;;;;10483090;28;45271;-66
2022/06/15 16:19:17;;;;;;;0.98;0.70;;;18.60;52.30;20.60;93939.00;;;;10482677;28;45192;-65
2022/06/15 16:24:39;;;;;;;1.38;0.90;;;18.60;52.30;20.70;93937.00;;;;10482666;28;45118;-65
2022/06/15 16:30:00;;;;;;;1.25;0.80;;;18.60;52.20;20.70;93948.00;;;;10482668;28;45743;-66
2022/06/15 16:35:22;;;;;;;1.55;0.68;;;18.60;52.20;20.70;93932.00;;;;10482310;28;45207;-66
2022/06/15 16:40:43;;;;;;;1.70;0.82;;;18.60;52.20;20.70;93936.00;;;;10482363;28;45863;-66
2022/06/15 16:46:04;;;;;;;0.88;0.73;;;18.60;52.10;20.70;93939.00;;;;10481349;28;45289;-65
2022/06/15 16:51:30;;;;;;;1.92;0.77;;;18.60;52.30;20.70;93945.00;;;;10482371;28;45425;-66
2022/06/15 16:56:52;;;;;;;1.23;0.80;;;18.70;52.30;20.70;93942.00;;;;10481602;28;45691;-66
2022/06/15 17:02:13;;;;;;;1.10;0.70;;;18.70;52.30;20.70;93942.00;;;;10481198;28;45680;-65
2022/06/15 17:07:36;;;;;;;1.17;0.70;;;18.70;52.20;20.70;93945.00;;;;10476299;28;45196;-66
2022/06/15 17:12:57;;;;;;;1.20;0.90;;;18.70;52.10;20.70;93949.00;;;;10480117;28;45874;-66
2022/06/15 17:18:17;;;;;;;1.38;0.77;;;18.70;52.20;20.70;93938.00;;;;10480238;28;45319;-66
2022/06/15 17:23:45;;;;;;;2.15;0.85;;;18.70;52.20;20.70;93933.00;;;;10480935;28;45158;-66
2022/06/15 17:29:06;;;;;;;1.00;0.73;;;18.70;52.20;20.70;93933.00;;;;10476287;28;45195;-66
2022/06/15 17:34:28;;;;;;;1.33;0.73;;;18.70;52.30;20.70;93940.00;;;;10478819;28;45212;-66
2022/06/15 17:39:50;;;;;;;0.80;0.65;;;18.70;52.30;20.70;93942.00;;;;10479915;28;45154;-66
2022/06/15 17:45:12;;;;;;;1.40;0.90;;;18.70;52.20;20.70;93936.00;;;;10479796;28;45688;-65
2022/06/15 17:50:33;;;;;;;1.15;0.70;;;18.70;52.30;20.70;93959.00;;;;10479786;28;45098;-65
2022/06/15 17:55:55;;;;;;;1.15;0.70;;;18.70;52.30;20.70;93960.00;;;;10479537;28;45212;-66
2022/06/15 18:01:17;;;;;;;1.42;0.85;;;18.60;52.30;20.70;93959.00;;;;10479893;28;45754;-65
2022/06/15 18:06:38;;;;;;;1.30;0.90;;;18.60;52.30;20.70;93961.00;;;;10479183;28;45115;-67
2022/06/15 18:12:03;;;;;;;1.00;0.70;;;18.60;52.30;20.70;93955.00;;;;10478851;28;45118;-66
2022/06/15 18:17:26;;;;;;;0.80;0.70;;;18.60;52.40;20.70;93966.00;;;;10478507;28;45901;-66
2022/06/15 18:22:47;;;;;;;0.98;0.60;;;18.50;52.40;20.60;93966.00;;;;10478047;28;45242;-66
2022/06/15 18:28:10;;;;;;;1.50;0.93;;;18.50;52.50;20.60;93952.00;;;;10486671;28;45298;-66
2022/06/15 18:33:34;;;;;;;1.23;0.80;;;18.50;52.50;20.60;93942.00;;;;10518946;28;45227;-66
2022/06/15 18:38:55;;;;;;;1.60;0.85;;;18.50;52.50;20.60;93938.00;;;;10519442;28;45230;-66
2022/06/15 18:49:56;;;;;;;1.92;0.90;;;18.40;52.60;20.50;93947.00;;;;10476340;28;45218;-66
2022/06/15 18:55:21;;;;;;;1.83;1.00;;;18.40;52.70;20.50;93959.00;;;;10476666;28;45177;-66
2022/06/15 19:00:42;;;;;;;0.98;0.80;;;18.40;52.70;20.50;93963.00;;;;10477052;28;45196;-66
2022/06/15 19:06:05;;;;;;;1.00;0.80;;;18.40;52.70;20.50;93961.00;;;;10476285;28;45235;-66
2022/06/15 19:11:26;;;;;;;1.25;0.70;;;18.40;52.70;20.50;93962.00;;;;10460203;28;45215;-66
2022/06/15 19:16:47;;;;;;;1.17;0.60;;;18.40;52.70;20.50;93970.00;;;;10470504;28;45348;-66
2022/06/15 19:22:08;;;;;;;2.63;0.80;;;18.30;52.70;20.50;93979.00;;;;10461663;28;45210;-66
2022/06/15 19:27:29;;;;;;;2.35;0.77;;;18.40;52.80;20.40;93973.00;;;;10458801;28;45288;-66
2022/06/15 19:32:51;;;;;;;2.08;0.77;;;18.30;52.80;20.50;93977.00;;;;10437225;28;45404;-66
2022/06/15 19:38:12;;;;;;;1.00;0.77;;;18.40;52.70;20.40;93991.00;;;;10462345;28;45821;-66
2022/06/15 19:43:38;;;;;;;1.17;0.75;;;18.30;52.80;20.40;93993.00;;;;10482450;28;45250;-66
2022/06/15 19:49:00;;;;;;;1.33;0.80;;;18.30;52.80;20.40;94002.00;;;;10481658;28;45155;-66
2022/06/15 19:54:21;;;;;;;1.27;0.75;;;18.30;52.80;20.40;94006.00;;;;10478552;28;45218;-67
2022/06/15 19:59:42;;;;;;;1.13;0.85;;;18.30;52.90;20.40;94008.00;;;;10480243;28;45862;-66
2022/06/15 20:05:06;;;;;;;1.38;0.73;;;18.30;52.80;20.40;94009.00;;;;10481632;28;45259;-66
2022/06/15 20:10:28;;;;;;;1.17;0.80;;;18.30;52.80;20.40;94020.00;;;;10481519;28;45180;-66
2022/06/15 20:15:48;;;;;;;1.42;0.80;;;18.30;52.80;20.30;94018.00;;;;10479492;28;45728;-67
2022/06/15 20:21:13;;;;;;;1.17;0.98;;;18.30;52.90;20.30;94010.00;;;;10476739;28;45588;-66
2022/06/15 20:26:38;;;;;;;1.42;0.95;;;18.30;53.00;20.30;94019.00;;;;10480258;28;45166;-66
2022/06/15 20:31:59;;;;;;;1.08;0.70;;;18.20;53.00;20.30;94023.00;;;;10481304;28;45357;-66
2022/06/15 20:37:21;;;;;;;1.27;1.02;;;18.20;53.00;20.30;94011.00;;;;10480834;28;45252;-66
2022/06/15 20:42:43;;;;;;;1.17;0.90;;;18.20;53.00;20.30;94014.00;;;;10480507;28;45195;-67
2022/06/15 20:48:07;;;;;;;0.82;0.82;;;18.20;53.00;20.30;94020.00;;;;10480697;28;45717;-66
2022/06/15 20:53:31;;;;;;;1.70;0.90;;;18.20;52.90;20.30;94017.00;;;;10480695;28;45379;-66
2022/06/15 20:58:51;;;;;;;1.60;1.30;;;18.20;52.90;20.30;94012.00;;;;10480570;28;45256;-66
2022/06/15 21:04:12;;;;;;;1.30;0.93;;;18.20;53.10;20.30;94042.00;;;;10480402;28;45227;-66
2022/06/15 21:09:35;;;;;;;2.92;1.00;;;18.20;53.10;20.30;94037.00;;;;10479742;28;45188;-66
2022/06/15 21:20:35;;;;;;;1.42;1.00;;;18.20;53.10;20.30;94041.00;;;;10479988;28;45275;-66
2022/06/15 21:25:57;;;;;;;2.22;1.30;;;18.10;53.00;20.30;94046.00;;;;10479091;28;45169;-66
2022/06/15 21:31:18;;;;;;;2.00;1.20;;;18.20;53.10;20.30;94040.00;;;;10479377;28;45199;-66
2022/06/15 21:36:40;;;;;;;1.05;0.80;;;18.20;53.10;20.30;94043.00;;;;10478791;28;45128;-66
2022/06/15 21:42:03;;;;;;;2.50;1.20;;;18.10;53.30;20.20;94034.00;;;;10479301;28;45094;-66
2022/06/15 21:47:24;;;;;;;1.35;1.00;;;18.10;53.30;20.20;94039.00;;;;10479241;28;45847;-67
2022/06/15 21:52:47;;;;;;;1.00;0.82;;;18.10;53.40;20.20;94040.00;;;;10477515;28;45161;-67
2022/06/15 21:58:10;;;;;;;1.50;0.80;;;18.10;53.30;20.20;94052.00;;;;10478338;28;45251;-67
2022/06/15 22:03:30;;;;;;;1.20;1.08;;;18.10;53.30;20.20;94037.00;;;;10478635;28;45500;-67
2022/06/15 22:08:51;;;;;;;1.45;1.08;;;18.10;53.30;20.20;94046.00;;;;10477744;28;45741;-67
2022/06/15 22:14:13;;;;;;;1.15;0.90;;;18.10;53.50;20.20;94039.00;;;;10478174;28;45835;-66
2022/06/15 22:19:34;;;;;;;1.20;1.00;;;18.10;53.50;20.20;94041.00;;;;10477482;28;45178;-67
2022/06/15 22:24:54;;;;;;;2.53;1.00;;;18.00;53.60;20.20;94041.00;;;;10477625;28;45169;-67
2022/06/15 22:30:17;;;;;;;1.60;0.90;;;18.10;53.70;20.20;94048.00;;;;10477874;28;46114;-67
2022/06/15 22:35:37;;;;;;;1.40;0.90;;;18.10;53.70;20.20;94052.00;;;;10476946;28;45808;-67
2022/06/15 22:40:59;;;;;;;1.00;0.75;;;18.10;53.70;20.20;94052.00;;;;10477589;28;45283;-67
2022/06/15 22:46:21;;;;;;;1.67;0.90;;;18.10;53.70;20.10;94036.00;;;;10477365;28;45342;-67
2022/06/15 22:51:41;;;;;;;1.55;1.05;;;18.10;53.70;20.20;94042.00;;;;10476792;28;45113;-67
2022/06/15 22:57:02;;;;;;;1.27;1.10;;;18.00;53.90;20.10;94036.00;;;;10476494;28;45689;-67
2022/06/15 23:02:24;;;;;;;1.42;1.08;;;18.00;54.00;20.10;94036.00;;;;10480483;28;45250;-67
2022/06/15 23:07:47;;;;;;;1.23;0.90;;;18.00;53.90;20.10;94029.00;;;;10484009;28;45120;-67
2022/06/15 23:13:08;;;;;;;1.95;1.00;;;18.00;54.10;20.10;94036.00;;;;10483784;28;45272;-67
2022/06/15 23:18:30;;;;;;;1.00;0.90;;;18.00;54.00;20.10;94030.00;;;;10483346;28;45131;-67
2022/06/15 23:23:51;;;;;;;1.27;0.93;;;18.00;54.00;20.10;94025.00;;;;10483765;28;45166;-67
2022/06/15 23:29:12;;;;;;;1.50;0.93;;;18.00;54.00;20.10;94039.00;;;;10483088;28;45105;-67
2022/06/15 23:34:34;;;;;;;1.23;0.90;;;18.00;54.10;20.10;94047.00;;;;10482622;28;45854;-67
2022/06/15 23:39:55;;;;;;;1.08;0.88;;;18.10;54.10;20.10;94036.00;;;;10482623;28;45370;-67
2022/06/15 23:50:59;;;;;;;0.90;0.80;;;18.00;54.00;20.10;94039.00;;;;10483103;28;45384;-67
2022/06/15 23:56:20;;;;;;;1.98;0.90;;;18.00;54.10;20.10;94040.00;;;;10482418;28;45291;-67
